Time;durP1;ratioP1;P1;durP2;ratioP2;P2;SDS_P1;SDS_P2;PMS_P1;PMS_P2;Temp;Humidity;BMP_temperature;BMP_pressure;BME280_temperature;BME280_humidity;BME280_pressure;Samples;Min_cycle;Max_cycle;Signal;HPM_P1;HPM_P2
2023/05/27 00:00:23;;;;;;;0.13;0.13;;;;;;;17.29;47.41;103120.53;5060634;28;20793;-63
2023/05/27 00:02:49;;;;;;;0.25;0.25;;;;;;;17.24;48.03;103117.59;5061972;28;20059;-61
2023/05/27 00:05:16;;;;;;;0.10;0.10;;;;;;;17.20;47.91;103121.81;5061454;28;20097;-64
2023/05/27 00:07:41;;;;;;;0.10;0.10;;;;;;;17.15;48.38;103124.34;5060634;28;20116;-65
2023/05/27 00:10:07;;;;;;;0.10;0.10;;;;;;;16.72;49.39;103126.72;5059377;28;20032;-64
2023/05/27 00:12:32;;;;;;;0.30;0.30;;;;;;;16.62;50.46;103129.84;5061106;28;20058;-61
2023/05/27 00:14:58;;;;;;;0.20;0.20;;;;;;;16.59;50.25;103118.56;5060270;28;20381;-62
2023/05/27 00:17:23;;;;;;;0.10;0.10;;;;;;;16.74;50.18;103121.06;5060604;28;20086;-62
2023/05/27 00:19:49;;;;;;;0.20;0.20;;;;;;;16.92;49.22;103115.84;5061378;28;20033;-63
2023/05/27 00:22:15;;;;;;;0.30;0.30;;;;;;;16.82;49.39;103121.69;5061212;28;20032;-62
2023/05/27 00:24:41;;;;;;;0.10;0.10;;;;;;;16.41;50.39;103113.72;5059917;28;20029;-62
2023/05/27 00:27:06;;;;;;;0.20;0.20;;;;;;;16.69;49.83;103111.69;5060061;28;20441;-62
2023/05/27 00:29:32;;;;;;;0.20;0.20;;;;;;;16.93;49.33;103107.47;5042647;28;20099;-63
2023/05/27 00:32:00;;;;;;;0.20;0.20;;;;;;;16.82;49.49;103105.41;5058406;28;20071;-63
2023/05/27 00:34:25;;;;;;;0.10;0.10;;;;;;;16.94;49.50;103106.44;5060344;28;20090;-62
2023/05/27 00:36:50;;;;;;;0.10;0.10;;;;;;;16.69;49.88;103108.97;5058798;28;20045;-63
2023/05/27 00:39:16;;;;;;;0.20;0.20;;;;;;;16.29;50.69;103101.84;5061367;28;20023;-62
2023/05/27 00:41:47;;;;;;;0.10;0.10;;;;;;;16.41;51.03;103099.34;5059275;28;20036;-63
2023/05/27 00:44:12;;;;;;;0.20;0.20;;;;;;;16.28;51.15;103104.75;5058973;28;20083;-62
2023/05/27 00:46:38;;;;;;;0.20;0.20;;;;;;;16.33;50.53;103100.38;5060767;28;20064;-63
2023/05/27 00:49:03;;;;;;;0.20;0.20;;;;;;;15.86;52.90;103096.97;5059823;28;20102;-63
2023/05/27 00:51:29;;;;;;;0.20;0.20;;;;;;;16.61;50.97;103101.03;5058958;28;20561;-63
2023/05/27 00:53:55;;;;;;;0.10;0.10;;;;;;;16.34;51.00;103102.03;5061359;28;20032;-62
2023/05/27 00:56:20;;;;;;;0.20;0.20;;;;;;;16.35;51.26;103087.41;5059043;28;20044;-63
2023/05/27 00:58:46;;;;;;;0.10;0.10;;;;;;;16.30;51.29;103089.09;5060210;28;20037;-62
2023/05/27 01:01:12;;;;;;;0.10;0.10;;;;;;;16.45;50.68;103087.84;5060510;28;20041;-63
2023/05/27 01:03:38;;;;;;;0.20;0.20;;;;;;;16.56;50.38;103091.84;5058499;28;20286;-63
2023/05/27 01:06:15;;;;;;;0.20;0.20;;;;;;;16.41;50.65;103086.59;5058821;28;20079;-62
2023/05/27 01:08:48;;;;;;;0.20;0.20;;;;;;;16.47;50.65;103090.38;5056916;28;20059;-63
2023/05/27 01:11:21;;;;;;;0.15;0.15;;;;;;;16.50;50.59;103089.97;5057489;28;20047;-62
2023/05/27 01:13:55;;;;;;;0.20;0.20;;;;;;;16.54;50.69;103081.22;5058783;28;20052;-63
2023/05/27 01:16:21;;;;;;;0.30;0.30;;;;;;;16.05;51.87;103080.75;5056564;28;20053;-63
2023/05/27 01:18:48;;;;;;;0.28;0.28;;;;;;;16.05;51.93;103080.75;5058854;28;20039;-62
2023/05/27 01:21:18;;;;;;;0.20;0.20;;;;;;;16.14;52.13;103079.50;5060548;28;20531;-62
2023/05/27 01:23:47;;;;;;;0.30;0.30;;;;;;;16.26;51.34;103090.56;5059107;28;20033;-64
2023/05/27 01:26:12;;;;;;;0.20;0.20;;;;;;;15.77;53.32;103093.59;5057831;28;20039;-62
2023/05/27 01:28:38;;;;;;;0.20;0.20;;;;;;;15.70;53.23;103088.16;5059837;28;20033;-63
2023/05/27 01:31:21;;;;;;;0.20;0.20;;;;;;;15.90;52.77;103093.63;5058805;28;20037;-62
2023/05/27 01:33:55;;;;;;;0.15;0.15;;;;;;;16.19;52.06;103087.84;5057876;28;20051;-62
2023/05/27 01:36:24;;;;;;;0.30;0.30;;;;;;;16.43;51.24;103089.13;5038664;28;20373;-62
2023/05/27 01:38:51;;;;;;;0.20;0.20;;;;;;;16.21;51.38;103091.19;5058572;28;20063;-63
2023/05/27 01:41:17;;;;;;;0.30;0.30;;;;;;;16.31;51.80;103096.22;5057139;28;20123;-63
2023/05/27 01:43:43;;;;;;;0.20;0.20;;;;;;;16.19;52.01;103095.16;5046368;28;20126;-62
2023/05/27 01:46:09;;;;;;;0.20;0.20;;;;;;;16.25;51.53;103097.03;5050109;28;20043;-62
2023/05/27 01:48:34;;;;;;;0.30;0.30;;;;;;;16.09;51.84;103090.13;5049859;28;20446;-63
2023/05/27 01:51:00;;;;;;;0.17;0.17;;;;;;;16.05;52.93;103094.31;5050271;28;20065;-64
2023/05/27 01:53:25;;;;;;;0.13;0.13;;;;;;;16.04;52.92;103094.50;5049565;28;20388;-62
2023/05/27 01:55:50;;;;;;;0.22;0.22;;;;;;;16.11;52.64;103087.22;5051481;28;20033;-63
2023/05/27 01:58:16;;;;;;;0.20;0.20;;;;;;;16.27;52.30;103084.09;5048867;28;20512;-63
2023/05/27 02:00:41;;;;;;;0.10;0.10;;;;;;;16.19;52.60;103084.31;5041683;28;20036;-62
2023/05/27 02:03:06;;;;;;;0.10;0.10;;;;;;;16.13;52.77;103087.84;5031478;28;20037;-64
2023/05/27 02:05:32;;;;;;;0.10;0.10;;;;;;;16.01;53.17;103076.78;5048987;28;20037;-62
2023/05/27 02:07:58;;;;;;;0.20;0.20;;;;;;;16.18;52.38;103077.19;5049048;28;20036;-62
2023/05/27 02:10:23;;;;;;;0.10;0.10;;;;;;;16.02;53.09;103085.75;5049012;28;20069;-62
2023/05/27 02:12:49;;;;;;;0.20;0.20;;;;;;;16.15;52.49;103080.34;5048689;28;20520;-62
2023/05/27 02:15:14;;;;;;;0.20;0.20;;;;;;;15.71;53.73;103078.16;5049553;28;20542;-62
2023/05/27 02:17:40;;;;;;;0.20;0.20;;;;;;;16.10;52.36;103067.38;5048949;28;20061;-62
2023/05/27 02:20:05;;;;;;;0.28;0.28;;;;;;;16.20;52.45;103072.38;5049076;28;20039;-63
2023/05/27 02:22:31;;;;;;;0.20;0.20;;;;;;;16.00;52.55;103072.38;5049605;28;20041;-63
2023/05/27 02:24:56;;;;;;;0.15;0.15;;;;;;;16.24;51.86;103079.06;5052656;28;20048;-64
2023/05/27 02:27:22;;;;;;;0.15;0.15;;;;;;;16.64;50.74;103078.91;5053286;28;20033;-62
2023/05/27 02:29:47;;;;;;;0.30;0.30;;;;;;;16.18;51.30;103086.16;5053459;28;20192;-64
2023/05/27 02:32:12;;;;;;;0.15;0.15;;;;;;;16.13;52.22;103077.84;5053532;28;20041;-62
2023/05/27 02:34:38;;;;;;;0.22;0.22;;;;;;;16.11;52.24;103079.91;5053526;28;20123;-62
2023/05/27 02:37:06;;;;;;;0.10;0.10;;;;;;;15.99;53.43;103072.59;5053531;28;20114;-62
2023/05/27 02:39:32;;;;;;;0.20;0.20;;;;;;;15.67;53.71;103075.03;5053642;28;20035;-62
2023/05/27 02:41:57;;;;;;;0.20;0.20;;;;;;;15.90;53.24;103076.56;5036183;28;20373;-62
2023/05/27 02:44:23;;;;;;;0.30;0.30;;;;;;;15.81;53.04;103074.03;5053529;28;20045;-63
2023/05/27 02:46:48;;;;;;;0.28;0.28;;;;;;;16.04;52.61;103079.06;5053412;28;20040;-62
2023/05/27 02:49:14;;;;;;;0.10;0.10;;;;;;;16.02;53.41;103074.91;5053169;28;20044;-63
2023/05/27 02:51:39;;;;;;;0.30;0.22;;;;;;;15.94;53.28;103080.53;5053129;28;20039;-62
2023/05/27 02:54:05;;;;;;;0.28;0.28;;;;;;;16.09;52.98;103079.28;5053818;28;20435;-63
2023/05/27 02:56:30;;;;;;;0.22;0.22;;;;;;;16.34;52.02;103082.22;5052787;28;20124;-63
2023/05/27 02:58:55;;;;;;;0.10;0.10;;;;;;;16.07;53.21;103085.94;5053107;28;20068;-63
2023/05/27 03:01:21;;;;;;;0.20;0.20;;;;;;;16.05;52.75;103086.16;5053395;28;20425;-62
2023/05/27 03:03:46;;;;;;;0.10;0.10;;;;;;;16.24;52.56;103074.50;5053099;28;20033;-62
2023/05/27 03:06:12;;;;;;;0.30;0.30;;;;;;;15.90;53.40;103076.56;5042534;28;20478;-63
2023/05/27 03:08:37;;;;;;;0.10;0.10;;;;;;;15.85;53.80;103079.88;5033127;28;20044;-63
2023/05/27 03:11:02;;;;;;;0.30;0.30;;;;;;;16.13;53.13;103083.25;5033042;28;20033;-62
2023/05/27 03:13:28;;;;;;;0.30;0.30;;;;;;;15.92;53.56;103075.28;5032804;28;20105;-63
2023/05/27 03:15:54;;;;;;;0.30;0.30;;;;;;;15.47;54.81;103079.53;5033414;28;20061;-62
2023/05/27 03:18:20;;;;;;;0.10;0.10;;;;;;;15.83;53.95;103085.50;5033502;28;20037;-62
2023/05/27 03:20:45;;;;;;;0.20;0.20;;;;;;;15.72;54.27;103085.28;5032986;28;20580;-62
2023/05/27 03:23:11;;;;;;;0.30;0.30;;;;;;;15.97;53.13;103082.81;5032717;28;20228;-63
2023/05/27 03:25:36;;;;;;;0.20;0.20;;;;;;;15.33;54.74;103080.50;5047878;28;20061;-62
2023/05/27 03:28:01;;;;;;;0.20;0.20;;;;;;;15.70;54.26;103079.22;5046673;28;20044;-61
2023/05/27 03:30:27;;;;;;;0.20;0.20;;;;;;;15.91;53.86;103070.91;5050712;28;20029;-64
2023/05/27 03:32:52;;;;;;;0.28;0.28;;;;;;;15.94;53.64;103078.63;5051366;28;20033;-63
2023/05/27 03:35:17;;;;;;;0.20;0.20;;;;;;;15.72;54.08;103072.53;5051085;28;20045;-62
2023/05/27 03:37:43;;;;;;;0.10;0.10;;;;;;;15.86;54.02;103069.88;5051233;28;20040;-62
2023/05/27 03:40:09;;;;;;;0.20;0.20;;;;;;;15.83;54.19;103068.38;5051327;28;20037;-62
2023/05/27 03:42:34;;;;;;;0.28;0.28;;;;;;;15.79;54.51;103070.69;5051370;28;20060;-61
2023/05/27 03:45:00;;;;;;;0.22;0.22;;;;;;;16.01;53.33;103063.22;5033558;28;20099;-64
2023/05/27 03:47:25;;;;;;;0.20;0.20;;;;;;;16.00;53.50;103056.09;5037401;28;20041;-64
2023/05/27 03:49:51;;;;;;;0.10;0.10;;;;;;;15.97;53.33;103053.81;5071301;28;20089;-65
2023/05/27 03:52:16;;;;;;;0.20;0.20;;;;;;;16.08;53.52;103061.31;5058330;28;20463;-65
2023/05/27 03:54:42;;;;;;;0.20;0.20;;;;;;;15.79;54.22;103061.72;5050712;28;20052;-63
2023/05/27 03:57:08;;;;;;;0.20;0.20;;;;;;;15.65;54.66;103060.00;5051298;28;20492;-63
2023/05/27 03:59:33;;;;;;;0.10;0.10;;;;;;;15.76;54.62;103059.41;5051249;28;20124;-62
2023/05/27 04:01:59;;;;;;;0.10;0.10;;;;;;;15.72;55.03;103058.97;5048933;28;20116;-63
2023/05/27 04:04:24;;;;;;;0.30;0.30;;;;;;;15.77;54.54;103072.75;5050465;28;20119;-61
2023/05/27 04:06:49;;;;;;;0.20;0.20;;;;;;;15.70;54.15;103052.91;5049006;28;20532;-63
2023/05/27 04:09:15;;;;;;;0.13;0.13;;;;;;;15.82;54.64;103045.03;5050684;28;20028;-62
2023/05/27 04:11:40;;;;;;;0.20;0.20;;;;;;;15.75;55.10;103052.31;5049949;28;20037;-63
2023/05/27 04:14:06;;;;;;;0.30;0.30;;;;;;;15.78;54.53;103052.72;5049968;28;20052;-63
2023/05/27 04:16:33;;;;;;;0.20;0.20;;;;;;;15.73;55.05;103049.81;5051294;28;20098;-62
2023/05/27 04:19:00;;;;;;;0.17;0.17;;;;;;;15.86;54.84;103053.59;5051379;28;20559;-62
2023/05/27 04:21:25;;;;;;;0.20;0.20;;;;;;;15.47;56.29;103062.44;5050863;28;20028;-63
2023/05/27 04:23:50;;;;;;;0.20;0.20;;;;;;;15.39;56.57;103060.72;5050806;28;20550;-63
2023/05/27 04:26:16;;;;;;;0.20;0.20;;;;;;;15.17;57.25;103067.31;5050410;28;20124;-62
2023/05/27 04:28:45;;;;;;;0.20;0.20;;;;;;;15.77;55.49;103051.06;5050220;28;20097;-62
2023/05/27 04:31:12;;;;;;;0.20;0.20;;;;;;;15.65;55.44;103050.00;5050242;28;20089;-62
2023/05/27 04:33:41;;;;;;;0.20;0.20;;;;;;;15.84;55.76;103045.69;5050677;28;20158;-63
2023/05/27 04:36:07;;;;;;;0.10;0.10;;;;;;;15.74;55.48;103050.66;5050763;28;20032;-64
2023/05/27 04:38:33;;;;;;;0.20;0.20;;;;;;;16.03;54.61;103046.72;5050321;28;20115;-62
2023/05/27 04:40:59;;;;;;;0.20;0.20;;;;;;;15.95;55.21;103046.91;5050218;28;20176;-61
2023/05/27 04:43:26;;;;;;;0.20;0.20;;;;;;;16.04;55.26;103037.56;5052172;28;20504;-62
2023/05/27 04:45:52;;;;;;;0.20;0.20;;;;;;;16.01;55.05;103041.50;5069328;28;20048;-61
2023/05/27 04:48:19;;;;;;;0.20;0.20;;;;;;;16.05;55.35;103037.34;5059930;28;20040;-62
2023/05/27 04:50:45;;;;;;;0.20;0.20;;;;;;;16.05;55.42;103040.06;5049893;28;20029;-63
2023/05/27 04:53:11;;;;;;;0.20;0.20;;;;;;;15.71;56.55;103051.91;5050092;28;20464;-63
2023/05/27 04:55:38;;;;;;;0.20;0.20;;;;;;;16.18;55.18;103042.75;5049512;28;20111;-63
2023/05/27 04:58:05;;;;;;;0.10;0.10;;;;;;;16.09;55.65;103044.03;5049551;28;20025;-62
2023/05/27 05:00:49;;;;;;;0.10;0.10;;;;;;;16.48;54.42;103029.59;5049747;28;20029;-63
2023/05/27 05:03:22;;;;;;;0.13;0.13;;;;;;;16.41;54.43;103035.03;5050137;28;20040;-62
2023/05/27 05:05:51;;;;;;;0.20;0.20;;;;;;;16.73;54.06;103040.66;5049492;28;20033;-62
2023/05/27 05:08:21;;;;;;;0.10;0.10;;;;;;;15.92;56.29;103034.59;5049451;28;20060;-62
2023/05/27 05:10:47;;;;;;;0.30;0.30;;;;;;;16.56;54.45;103035.69;5049621;28;20037;-64
2023/05/27 05:13:13;;;;;;;0.20;0.20;;;;;;;16.14;55.41;103038.78;5049314;28;20423;-63
2023/05/27 05:15:39;;;;;;;0.20;0.20;;;;;;;16.58;54.61;103036.31;5049427;28;20040;-64
2023/05/27 05:18:04;;;;;;;0.20;0.20;;;;;;;16.62;54.61;103034.84;5049950;28;20033;-63
2023/05/27 05:20:30;;;;;;;0.15;0.15;;;;;;;16.90;54.48;103034.56;5049606;28;20096;-63
2023/05/27 05:22:55;;;;;;;0.20;0.20;;;;;;;16.37;55.87;103038.38;5049262;28;20044;-64
2023/05/27 05:25:21;;;;;;;0.10;0.10;;;;;;;16.82;54.57;103042.94;5049507;28;20045;-63
2023/05/27 05:27:46;;;;;;;0.10;0.10;;;;;;;16.42;55.94;103034.00;5031391;28;20037;-62
2023/05/27 05:30:12;;;;;;;0.20;0.20;;;;;;;16.61;54.98;103033.16;5049775;28;20029;-64
2023/05/27 05:32:37;;;;;;;0.20;0.20;;;;;;;16.61;55.22;103035.88;5049224;28;20439;-63
2023/05/27 05:35:03;;;;;;;0.17;0.17;;;;;;;17.02;54.44;103029.31;5049004;28;20470;-63
2023/05/27 05:37:29;;;;;;;0.32;0.32;;;;;;;16.68;55.46;103034.00;5048984;28;20040;-64
2023/05/27 05:39:55;;;;;;;0.10;0.10;;;;;;;17.29;53.78;103023.53;5053346;28;20277;-63
2023/05/27 05:42:20;;;;;;;0.10;0.10;;;;;;;16.91;54.97;103027.22;5069667;28;20021;-63
2023/05/27 05:44:46;;;;;;;0.17;0.17;;;;;;;17.22;53.87;103021.88;5056308;28;20532;-63
2023/05/27 05:47:11;;;;;;;0.13;0.13;;;;;;;17.29;54.06;103014.56;5049358;28;20037;-63
2023/05/27 05:49:37;;;;;;;0.20;0.20;;;;;;;17.14;54.21;103012.09;5048976;28;20025;-63
2023/05/27 05:52:02;;;;;;;0.20;0.20;;;;;;;17.55;53.77;103020.69;5048867;28;20090;-65
2023/05/27 05:54:27;;;;;;;0.20;0.20;;;;;;;17.64;53.03;103021.28;5048463;28;20427;-62
2023/05/27 05:56:53;;;;;;;0.10;0.10;;;;;;;17.89;52.79;103019.41;5048898;28;20469;-61
2023/05/27 05:59:18;;;;;;;0.10;0.10;;;;;;;17.54;53.27;103018.19;5048672;28;20056;-63
2023/05/27 06:01:44;;;;;;;0.20;0.20;;;;;;;17.65;53.34;103017.50;5048719;28;20385;-62
2023/05/27 06:04:09;;;;;;;0.20;0.20;;;;;;;17.81;53.01;103016.97;5048783;28;20488;-61
2023/05/27 06:06:34;;;;;;;0.20;0.20;;;;;;;17.81;53.02;103016.97;5049010;28;20052;-63
2023/05/27 06:09:00;;;;;;;0.20;0.20;;;;;;;17.36;54.45;103015.34;5049127;28;20040;-62
2023/05/27 06:11:26;;;;;;;0.13;0.13;;;;;;;17.93;52.95;103008.94;5048863;28;20106;-63
2023/05/27 06:13:51;;;;;;;0.10;0.10;;;;;;;17.61;54.41;103013.53;5048414;28;20049;-64
2023/05/27 06:16:17;;;;;;;0.20;0.20;;;;;;;17.82;53.84;103015.09;5048850;28;20396;-63
2023/05/27 06:18:45;;;;;;;0.20;0.20;;;;;;;17.92;53.67;103007.28;5048407;28;20033;-63
2023/05/27 06:21:11;;;;;;;0.20;0.20;;;;;;;17.79;54.63;103015.53;5049584;28;20473;-61
2023/05/27 06:23:36;;;;;;;0.20;0.20;;;;;;;18.18;53.12;103009.78;5048622;28;20036;-62
2023/05/27 06:26:02;;;;;;;0.20;0.20;;;;;;;17.83;54.13;103008.59;5048397;28;20052;-65
2023/05/27 06:28:27;;;;;;;0.10;0.10;;;;;;;18.14;53.32;103003.94;5048384;28;20537;-62
2023/05/27 06:30:52;;;;;;;0.10;0.10;;;;;;;18.35;52.93;103008.16;5048444;28;20486;-62
2023/05/27 06:33:18;;;;;;;0.13;0.13;;;;;;;18.27;53.42;103001.13;5049105;28;20292;-63
2023/05/27 06:35:44;;;;;;;0.10;0.10;;;;;;;18.60;52.59;102992.63;5050257;28;20033;-63
2023/05/27 06:38:09;;;;;;;0.10;0.10;;;;;;;18.82;52.24;102991.13;5069848;28;20037;-62
2023/05/27 06:40:34;;;;;;;0.47;0.20;;;;;;;18.94;52.15;102992.03;5060742;28;20036;-65
2023/05/27 06:43:00;;;;;;;0.20;0.20;;;;;;;18.77;52.51;102987.44;5049546;28;20041;-64
2023/05/27 06:45:25;;;;;;;0.20;0.20;;;;;;;19.25;51.18;102982.81;5049670;28;20507;-64
2023/05/27 06:47:51;;;;;;;0.20;0.20;;;;;;;18.61;52.34;102986.16;5050235;28;20032;-64
2023/05/27 06:50:16;;;;;;;0.20;0.20;;;;;;;18.25;54.05;102989.63;5049457;28;20032;-64
2023/05/27 06:52:41;;;;;;;0.10;0.10;;;;;;;18.49;54.03;102981.66;5049450;28;20750;-62
2023/05/27 06:55:07;;;;;;;0.20;0.20;;;;;;;19.22;50.86;102981.38;5049232;28;20079;-63
2023/05/27 06:57:33;;;;;;;0.20;0.20;;;;;;;19.51;50.37;102981.66;5048374;28;20028;-64
2023/05/27 06:59:58;;;;;;;0.20;0.20;;;;;;;19.50;50.11;102980.81;5049755;28;20032;-62
2023/05/27 07:02:23;;;;;;;0.20;0.20;;;;;;;19.85;49.20;102975.47;5049243;28;20091;-64
2023/05/27 07:04:49;;;;;;;0.10;0.10;;;;;;;20.06;48.67;102967.53;5049237;28;20029;-63
2023/05/27 07:07:15;;;;;;;0.20;0.20;;;;;;;20.22;48.30;102966.03;5049264;28;20028;-63
2023/05/27 07:09:41;;;;;;;0.10;0.10;;;;;;;19.60;49.78;102972.91;5051881;28;20056;-63
2023/05/27 07:12:06;;;;;;;0.20;0.20;;;;;;;19.60;49.87;102972.91;5053140;28;20032;-63
2023/05/27 07:14:32;;;;;;;0.10;0.10;;;;;;;19.88;49.51;102962.16;5034704;28;20138;-62
2023/05/27 07:16:57;;;;;;;0.10;0.10;;;;;;;20.52;47.90;102957.69;5052688;28;20033;-65
2023/05/27 07:19:23;;;;;;;0.20;0.20;;;;;;;20.23;47.93;102964.09;5052794;28;20040;-63
2023/05/27 07:21:48;;;;;;;0.08;0.08;;;;;;;20.26;48.28;102961.75;5052634;28;20033;-61
2023/05/27 07:24:14;;;;;;;0.10;0.10;;;;;;;21.04;46.04;102961.25;5035297;28;20021;-62
2023/05/27 07:26:40;;;;;;;0.20;0.20;;;;;;;20.41;47.02;102959.34;5052178;28;20033;-63
2023/05/27 07:29:05;;;;;;;0.10;0.10;;;;;;;20.51;47.04;102956.84;5052215;28;20052;-63
2023/05/27 07:31:30;;;;;;;0.13;0.13;;;;;;;20.43;47.39;102950.91;5052139;28;20037;-62
2023/05/27 07:33:56;;;;;;;0.20;0.20;;;;;;;20.75;46.88;102953.00;5051928;28;20040;-63
2023/05/27 07:36:21;;;;;;;0.15;0.15;;;;;;;21.19;44.79;102945.16;5052359;28;20086;-63
2023/05/27 07:38:47;;;;;;;0.10;0.10;;;;;;;21.48;44.67;102947.59;5052013;28;20037;-63
2023/05/27 07:41:13;;;;;;;0.10;0.10;;;;;;;21.73;44.40;102947.22;5052059;28;20072;-64
2023/05/27 07:43:38;;;;;;;0.20;0.20;;;;;;;21.91;43.71;102944.28;5051604;28;20045;-64
2023/05/27 07:46:03;;;;;;;0.13;0.13;;;;;;;21.65;43.04;102940.25;5051756;28;20029;-63
2023/05/27 07:48:29;;;;;;;0.10;0.10;;;;;;;21.57;43.84;102935.19;5051848;28;20028;-63
2023/05/27 07:50:55;;;;;;;0.20;0.20;;;;;;;21.90;43.67;102936.28;5052102;28;20032;-64
2023/05/27 07:53:21;;;;;;;0.20;0.20;;;;;;;21.76;44.75;102927.56;5051457;28;20073;-63
2023/05/27 07:55:46;;;;;;;0.20;0.20;;;;;;;21.88;44.39;102924.78;5051429;28;20029;-63
2023/05/27 07:58:12;;;;;;;0.17;0.17;;;;;;;21.09;45.34;102932.09;5051326;28;20090;-65
2023/05/27 08:00:37;;;;;;;0.20;0.20;;;;;;;22.18;43.15;102920.59;5051542;28;20033;-63
2023/05/27 08:03:03;;;;;;;0.10;0.10;;;;;;;22.73;41.54;102923.28;5052167;28;20350;-62
2023/05/27 08:05:28;;;;;;;0.10;0.10;;;;;;;22.30;42.89;102915.00;5051638;28;20036;-64
2023/05/27 08:07:53;;;;;;;0.10;0.10;;;;;;;22.37;41.97;102915.63;5048698;28;20059;-66
2023/05/27 08:10:19;;;;;;;0.10;0.10;;;;;;;23.06;41.23;102911.31;5051328;28;20075;-62
2023/05/27 08:12:44;;;;;;;0.10;0.10;;;;;;;22.88;42.12;102904.25;5050736;28;20493;-64
2023/05/27 08:15:11;;;;;;;0.10;0.10;;;;;;;23.06;41.01;102909.41;5033830;28;20080;-62
2023/05/27 08:17:36;;;;;;;0.10;0.10;;;;;;;22.08;43.10;102904.00;5051549;28;20099;-64
2023/05/27 08:20:01;;;;;;;0.10;0.10;;;;;;;22.55;41.84;102902.47;5051249;28;20481;-62
2023/05/27 08:22:27;;;;;;;0.10;0.10;;;;;;;22.28;42.37;102906.22;5049334;28;20052;-63
2023/05/27 08:24:54;;;;;;;0.10;0.10;;;;;;;21.70;43.09;102902.03;5052275;28;20037;-64
2023/05/27 08:27:20;;;;;;;0.10;0.10;;;;;;;22.77;41.51;102891.53;5047974;28;21211;-63
2023/05/27 08:29:46;;;;;;;0.10;0.10;;;;;;;22.29;41.25;102895.00;5052953;28;20083;-64
2023/05/27 08:32:11;;;;;;;0.00;0.00;;;;;;;22.36;42.04;102884.69;5050999;28;20041;-64
2023/05/27 08:34:38;;;;;;;0.10;0.10;;;;;;;23.08;40.74;102884.44;5062351;28;20773;-64
2023/05/27 08:37:03;;;;;;;0.10;0.10;;;;;;;23.60;40.08;102885.53;5055186;28;20033;-63
2023/05/27 08:39:29;;;;;;;0.10;0.10;;;;;;;22.86;39.95;102889.16;5058815;28;20055;-64
2023/05/27 08:41:55;;;;;;;0.20;0.20;;;;;;;23.30;39.64;102874.25;5062164;28;20008;-65
2023/05/27 08:44:23;;;;;;;0.00;0.00;;;;;;;23.40;39.01;102866.97;5065699;28;20048;-63
2023/05/27 08:46:50;;;;;;;0.10;0.10;;;;;;;23.33;39.55;102868.28;5064641;28;20045;-63
2023/05/27 08:49:16;;;;;;;0.08;0.08;;;;;;;23.28;39.85;102873.69;5065374;28;20033;-63
2023/05/27 08:51:43;;;;;;;0.10;0.10;;;;;;;23.42;39.08;102866.69;5055776;28;20046;-63
2023/05/27 08:54:09;;;;;;;0.10;0.10;;;;;;;22.93;39.71;102859.63;5054872;28;20044;-62
2023/05/27 08:56:35;;;;;;;0.10;0.10;;;;;;;22.70;40.74;102853.34;5052967;28;20044;-63
2023/05/27 08:59:01;;;;;;;0.10;0.10;;;;;;;22.75;40.28;102849.00;5052211;28;20694;-63
2023/05/27 09:01:27;;;;;;;0.10;0.10;;;;;;;23.54;39.58;102853.63;5051929;28;20021;-64
2023/05/27 09:03:55;;;;;;;0.10;0.10;;;;;;;23.08;38.74;102844.13;5051826;28;20090;-62
2023/05/27 09:06:20;;;;;;;0.10;0.10;;;;;;;23.24;39.25;102845.94;5052390;28;20107;-64
2023/05/27 09:08:46;;;;;;;0.00;0.00;;;;;;;23.16;39.55;102840.91;5055762;28;20044;-64
2023/05/27 09:11:26;;;;;;;0.00;0.00;;;;;;;23.32;40.23;102837.25;5053190;28;20069;-62
2023/05/27 09:13:55;;;;;;;0.00;0.00;;;;;;;23.81;39.24;102851.63;5053599;28;20517;-64
2023/05/27 09:16:21;;;;;;;0.10;0.10;;;;;;;23.57;38.70;102833.88;5041355;28;20469;-63
2023/05/27 09:18:47;;;;;;;0.10;0.10;;;;;;;23.52;38.65;102828.34;5034029;28;20037;-63
2023/05/27 09:21:12;;;;;;;0.10;0.10;;;;;;;22.57;40.67;102830.97;5061561;28;20040;-61
2023/05/27 09:23:39;;;;;;;0.10;0.10;;;;;;;23.31;39.57;102835.59;5061106;28;20056;-62
2023/05/27 09:26:13;;;;;;;0.10;0.10;;;;;;;23.21;39.68;102829.19;5060915;28;20481;-64
2023/05/27 09:28:39;;;;;;;0.10;0.10;;;;;;;23.76;38.96;102817.81;5060257;28;20041;-62
2023/05/27 09:31:07;;;;;;;0.10;0.10;;;;;;;24.06;38.22;102821.56;5039722;28;20433;-65
2023/05/27 09:33:38;;;;;;;0.10;0.10;;;;;;;24.26;39.18;102818.94;5051510;28;20021;-63
2023/05/27 09:36:04;;;;;;;0.10;0.10;;;;;;;24.66;37.49;102811.91;5050163;28;20036;-63
2023/05/27 09:38:34;;;;;;;0.10;0.10;;;;;;;23.50;37.98;102812.16;5049225;28;20124;-65
2023/05/27 09:41:00;;;;;;;0.03;0.03;;;;;;;23.95;37.31;102816.28;5049495;28;20082;-63
2023/05/27 09:43:27;;;;;;;0.00;0.00;;;;;;;24.11;39.97;102807.06;5049007;28;20071;-63
2023/05/27 09:46:00;;;;;;;0.10;0.10;;;;;;;23.65;39.15;102805.94;5049703;28;20043;-63
2023/05/27 09:48:26;;;;;;;0.10;0.10;;;;;;;24.09;38.33;102811.97;5047493;28;20040;-63
2023/05/27 09:50:52;;;;;;;0.10;0.10;;;;;;;24.89;36.68;102815.00;5049770;28;20049;-63
2023/05/27 09:53:21;;;;;;;0.00;0.00;;;;;;;25.12;36.44;102810.88;5049347;28;20397;-64
2023/05/27 09:55:48;;;;;;;0.10;0.10;;;;;;;25.70;34.86;102810.34;5049222;28;20128;-63
2023/05/27 09:58:14;;;;;;;0.05;0.05;;;;;;;24.88;36.10;102809.78;5048615;28;20041;-63
2023/05/27 10:00:40;;;;;;;0.00;0.00;;;;;;;24.84;35.39;102806.78;5049235;28;20103;-64
2023/05/27 10:03:07;;;;;;;0.00;0.00;;;;;;;25.53;34.39;102809.00;5049711;28;20611;-63
2023/05/27 10:05:33;;;;;;;0.00;0.00;;;;;;;25.52;34.95;102796.31;5049317;28;20029;-63
2023/05/27 10:07:58;;;;;;;0.10;0.10;;;;;;;25.25;35.56;102796.59;5041076;28;20044;-63
2023/05/27 10:10:24;;;;;;;0.05;0.05;;;;;;;25.22;35.20;102792.47;5046133;28;20122;-64
2023/05/27 10:12:51;;;;;;;0.00;0.00;;;;;;;24.92;35.48;102797.16;5045910;28;20061;-62
2023/05/27 10:15:29;;;;;;;0.00;0.00;;;;;;;24.92;35.86;102792.44;5046918;28;20056;-62
2023/05/27 10:17:56;;;;;;;0.00;0.00;;;;;;;24.69;36.66;102784.69;5047031;28;20045;-63
2023/05/27 10:20:33;;;;;;;0.10;0.10;;;;;;;24.39;37.36;102782.69;5045890;28;20045;-63
2023/05/27 10:23:12;;;;;;;0.00;0.00;;;;;;;24.40;36.76;102781.59;5053967;28;20047;-63
2023/05/27 10:25:40;;;;;;;0.00;0.00;;;;;;;25.08;35.83;102774.84;5053197;28;20049;-62
2023/05/27 10:28:05;;;;;;;0.10;0.10;;;;;;;25.68;35.24;102775.91;5043033;28;20035;-63
2023/05/27 10:30:45;;;;;;;0.10;0.10;;;;;;;24.90;37.14;102774.59;5046211;28;20587;-62
2023/05/27 10:33:10;;;;;;;0.00;0.00;;;;;;;25.71;35.78;102776.16;5058806;28;20028;-63
2023/05/27 10:35:43;;;;;;;0.00;0.00;;;;;;;26.00;33.27;102768.09;5054147;28;20048;-66
2023/05/27 10:38:16;;;;;;;0.00;0.00;;;;;;;26.03;34.65;102762.84;5051951;28;20045;-63
2023/05/27 10:40:42;;;;;;;0.00;0.00;;;;;;;26.30;33.50;102748.66;5047984;28;20037;-62
2023/05/27 10:43:18;;;;;;;0.00;0.00;;;;;;;26.62;31.66;102746.28;5054005;28;20731;-62
2023/05/27 10:45:44;;;;;;;0.00;0.00;;;;;;;26.97;31.96;102744.41;5058044;28;20036;-62
2023/05/27 10:48:19;;;;;;;0.00;0.00;;;;;;;26.18;32.98;102745.44;5060066;28;20035;-63
2023/05/27 10:50:52;;;;;;;0.20;0.00;;;;;;;27.03;30.56;102741.28;5037162;28;20581;-62
2023/05/27 10:53:20;;;;;;;0.00;0.00;;;;;;;27.46;31.29;102731.25;5049765;28;20036;-64
2023/05/27 10:55:47;;;;;;;0.00;0.00;;;;;;;27.03;31.78;102735.75;5049941;28;20138;-65
2023/05/27 10:58:14;;;;;;;0.00;0.00;;;;;;;27.86;29.91;102725.22;5049798;28;20033;-64
2023/05/27 11:00:41;;;;;;;0.00;0.00;;;;;;;27.47;30.24;102727.34;5049526;28;20044;-63
2023/05/27 11:03:22;;;;;;;0.00;0.00;;;;;;;28.08;30.50;102716.41;5049985;28;20029;-63
2023/05/27 11:06:05;;;;;;;0.00;0.00;;;;;;;26.37;32.81;102715.28;5049198;28;20033;-63
2023/05/27 11:08:32;;;;;;;0.00;0.00;;;;;;;27.46;31.61;102714.66;5031368;28;20127;-63
2023/05/27 11:11:03;;;;;;;0.00;0.00;;;;;;;27.00;32.01;102707.91;5049686;28;20041;-63
2023/05/27 11:13:42;;;;;;;0.00;0.00;;;;;;;26.90;32.07;102703.31;5043268;28;20060;-62
2023/05/27 11:16:08;;;;;;;0.00;0.00;;;;;;;27.67;30.05;102707.78;5049274;28;20029;-62
2023/05/27 11:18:41;;;;;;;0.00;0.00;;;;;;;28.23;30.10;102696.81;5049167;28;20128;-62
2023/05/27 11:21:09;;;;;;;0.00;0.00;;;;;;;27.90;30.74;102690.34;5046980;28;20449;-64